Time;durP1;ratioP1;P1;durP2;ratioP2;P2;SDS_P1;SDS_P2;PMS_P1;PMS_P2;Temp;Humidity;BMP_temperature;BMP_pressure;BME280_temperature;BME280_humidity;BME280_pressure;Samples;Min_cycle;Max_cycle;Signal;HPM_P1;HPM_P2
2024/03/23 00:02:01;;;;;;;43.97;5.30;;;;;;;4.83;100.00;100013.53;5049090;28;20029;-72
2024/03/23 00:04:27;;;;;;;36.60;5.32;;;;;;;4.84;100.00;100015.22;5060702;28;20036;-72
2024/03/23 00:06:54;;;;;;;43.10;6.38;;;;;;;4.83;100.00;100005.56;5059875;28;20029;-72
2024/03/23 00:09:21;;;;;;;44.70;6.28;;;;;;;4.83;100.00;100002.88;5059137;28;20041;-72
2024/03/23 00:11:48;;;;;;;45.40;5.60;;;;;;;4.81;100.00;99993.44;5060201;28;20369;-72
2024/03/23 00:14:14;;;;;;;37.95;6.13;;;;;;;4.82;100.00;99985.25;5059930;28;20047;-72
2024/03/23 00:16:40;;;;;;;46.33;6.70;;;;;;;4.82;100.00;99995.91;5059593;28;20029;-72
2024/03/23 00:19:07;;;;;;;42.53;5.95;;;;;;;4.80;100.00;99991.75;5060681;28;20033;-72
2024/03/23 00:21:40;;;;;;;39.97;5.47;;;;;;;4.77;100.00;99990.31;5060405;28;20032;-72
2024/03/23 00:24:07;;;;;;;44.38;5.97;;;;;;;4.78;100.00;99989.28;5060886;28;20123;-72
2024/03/23 00:26:33;;;;;;;37.80;5.70;;;;;;;4.81;100.00;99980.94;5060221;28;20021;-72
2024/03/23 00:29:00;;;;;;;45.13;6.90;;;;;;;4.79;100.00;99987.44;5059529;28;20044;-72
2024/03/23 00:31:26;;;;;;;40.35;5.72;;;;;;;4.78;100.00;99985.81;5058771;28;20024;-72
2024/03/23 00:33:52;;;;;;;49.53;7.13;;;;;;;4.78;100.00;99972.47;5060377;28;20024;-72
2024/03/23 00:36:19;;;;;;;48.80;6.10;;;;;;;4.71;100.00;99970.53;5059688;28;20033;-72
2024/03/23 00:38:45;;;;;;;40.80;6.50;;;;;;;4.69;100.00;99971.72;5059623;28;20059;-72
2024/03/23 00:41:12;;;;;;;45.45;6.28;;;;;;;4.68;100.00;99967.41;5059851;28;20399;-72
2024/03/23 00:43:38;;;;;;;42.38;5.40;;;;;;;4.66;100.00;99969.41;5059616;28;20388;-72
2024/03/23 00:46:05;;;;;;;39.45;5.95;;;;;;;4.66;100.00;99967.56;5060045;28;20391;-72
2024/03/23 00:48:31;;;;;;;46.10;6.10;;;;;;;4.64;100.00;99960.78;5059144;28;20020;-72
2024/03/23 00:50:58;;;;;;;49.35;5.32;;;;;;;4.62;100.00;99968.94;5060379;28;20032;-72
2024/03/23 00:53:25;;;;;;;38.40;6.20;;;;;;;4.64;100.00;99966.13;5059048;28;20463;-73
2024/03/23 00:55:50;;;;;;;52.88;6.78;;;;;;;4.63;100.00;99965.25;5059522;28;20164;-72
2024/03/23 00:58:15;;;;;;;43.63;6.22;;;;;;;4.62;100.00;99950.28;5059507;28;20021;-72
2024/03/23 01:00:41;;;;;;;45.50;6.10;;;;;;;4.60;100.00;99952.34;5058544;28;20057;-72
2024/03/23 01:03:06;;;;;;;42.97;5.65;;;;;;;4.56;100.00;99952.84;5059306;28;20493;-72
2024/03/23 01:05:32;;;;;;;46.80;5.53;;;;;;;4.54;100.00;99942.41;5062682;28;20029;-72
2024/03/23 01:07:57;;;;;;;47.03;6.30;;;;;;;4.48;100.00;99935.13;5067389;28;20170;-74
2024/03/23 01:10:23;;;;;;;47.08;6.38;;;;;;;4.37;100.00;99930.22;5066164;28;20056;-73
2024/03/23 01:12:49;;;;;;;43.63;6.30;;;;;;;4.41;100.00;99940.34;5067797;28;20035;-72
2024/03/23 01:15:15;;;;;;;48.88;6.30;;;;;;;4.32;100.00;99932.59;5066941;28;20028;-72
2024/03/23 01:17:40;;;;;;;44.28;5.50;;;;;;;4.30;100.00;99926.63;5067292;28;20033;-72
2024/03/23 01:20:06;;;;;;;45.95;6.70;;;;;;;4.21;100.00;99924.03;5066225;28;20024;-72
2024/03/23 01:22:32;;;;;;;41.80;5.80;;;;;;;4.21;100.00;99929.38;5066286;28;20048;-73
2024/03/23 01:24:58;;;;;;;38.17;5.68;;;;;;;4.18;100.00;99920.91;5066189;28;20064;-72
2024/03/23 01:27:23;;;;;;;48.50;6.43;;;;;;;4.12;100.00;99919.78;5064031;28;20033;-72
2024/03/23 01:29:48;;;;;;;44.13;5.75;;;;;;;4.06;100.00;99917.84;5066777;28;20029;-73
2024/03/23 01:32:14;;;;;;;52.20;6.25;;;;;;;4.01;100.00;99917.56;5065815;28;20472;-72
2024/03/23 01:34:39;;;;;;;46.58;5.35;;;;;;;3.99;100.00;99908.91;5066190;28;20059;-72
2024/03/23 01:37:04;;;;;;;51.15;6.43;;;;;;;3.95;100.00;99904.97;5065254;28;20085;-71
2024/03/23 01:39:30;;;;;;;47.92;5.85;;;;;;;3.92;100.00;99899.97;5065709;28;20082;-72
2024/03/23 01:41:55;;;;;;;47.90;5.72;;;;;;;3.88;100.00;99904.00;5065178;28;20047;-72
2024/03/23 01:44:21;;;;;;;51.70;6.10;;;;;;;3.86;100.00;99898.84;5065314;28;20029;-72
2024/03/23 01:46:46;;;;;;;48.25;6.30;;;;;;;3.83;100.00;99893.06;5063753;28;20028;-72
2024/03/23 01:49:12;;;;;;;44.78;6.03;;;;;;;3.79;100.00;99892.59;5061499;28;20037;-72
2024/03/23 01:51:38;;;;;;;51.03;5.95;;;;;;;3.68;100.00;99877.06;5061523;28;20025;-72
2024/03/23 01:54:06;;;;;;;56.38;6.32;;;;;;;3.68;100.00;99877.06;5061401;28;20555;-72
2024/03/23 01:56:36;;;;;;;44.20;6.32;;;;;;;3.71;100.00;99888.16;5063798;28;20033;-72
2024/03/23 01:59:03;;;;;;;44.97;5.90;;;;;;;3.72;100.00;99878.34;5065031;28;20048;-72
2024/03/23 02:01:28;;;;;;;56.00;6.57;;;;;;;3.69;100.00;99876.03;5065693;28;20060;-72
2024/03/23 02:03:54;;;;;;;52.83;5.90;;;;;;;3.68;100.00;99869.06;5062349;28;20040;-72
2024/03/23 02:06:19;;;;;;;58.42;6.75;;;;;;;3.64;100.00;99870.41;5059176;28;20033;-74
2024/03/23 02:08:45;;;;;;;43.83;5.50;;;;;;;3.59;100.00;99868.28;5058922;28;20484;-72
2024/03/23 02:11:10;;;;;;;53.28;6.30;;;;;;;3.58;100.00;99868.47;5058798;28;20310;-73
2024/03/23 02:13:36;;;;;;;41.50;5.95;;;;;;;3.52;100.00;99865.50;5059303;28;20087;-72
2024/03/23 02:16:01;;;;;;;47.55;6.18;;;;;;;3.48;100.00;99858.88;5059041;28;20045;-72
2024/03/23 02:18:27;;;;;;;50.95;5.60;;;;;;;3.51;100.00;99858.53;5059444;28;20789;-73
2024/03/23 02:20:52;;;;;;;44.97;5.90;;;;;;;3.49;100.00;99855.22;5059810;28;20067;-72
2024/03/23 02:23:17;;;;;;;50.65;6.60;;;;;;;3.52;100.00;99859.38;5059472;28;20052;-72
2024/03/23 02:25:44;;;;;;;60.63;6.68;;;;;;;3.49;100.00;99851.72;5058785;28;20056;-72
2024/03/23 02:28:09;;;;;;;57.03;6.43;;;;;;;3.48;100.00;99858.06;5058938;28;20029;-72
2024/03/23 02:30:34;;;;;;;51.03;6.53;;;;;;;3.49;100.00;99849.91;5059039;28;20032;-72
2024/03/23 02:33:00;;;;;;;54.22;6.75;;;;;;;3.46;100.00;99852.91;5059363;28;20167;-72
2024/03/23 02:35:25;;;;;;;49.65;6.00;;;;;;;3.42;100.00;99854.28;5058822;28;20052;-72
2024/03/23 02:37:51;;;;;;;52.92;6.38;;;;;;;3.41;100.00;99849.13;5057700;28;20079;-72
2024/03/23 02:40:17;;;;;;;50.90;6.18;;;;;;;3.39;100.00;99856.47;5058698;28;20059;-72
2024/03/23 02:42:43;;;;;;;50.67;7.15;;;;;;;3.40;100.00;99850.13;5058430;28;20025;-72
2024/03/23 02:45:08;;;;;;;54.33;6.10;;;;;;;3.37;100.00;99845.97;5058856;28;20037;-72
2024/03/23 02:47:34;;;;;;;57.85;6.22;;;;;;;3.39;100.00;99859.13;5059026;28;20047;-72
2024/03/23 02:49:59;;;;;;;53.95;6.38;;;;;;;3.36;100.00;99849.66;5061361;28;20033;-73
2024/03/23 02:52:24;;;;;;;50.75;5.47;;;;;;;3.35;100.00;99847.19;5061382;28;20029;-73
2024/03/23 02:54:50;;;;;;;46.65;6.32;;;;;;;3.35;100.00;99836.53;5062121;28;20594;-72
2024/03/23 02:57:15;;;;;;;52.95;6.65;;;;;;;3.20;100.00;99823.97;5062591;28;20036;-72
2024/03/23 02:59:41;;;;;;;47.95;6.95;;;;;;;3.34;100.00;99830.38;5061331;28;20106;-72
2024/03/23 03:02:06;;;;;;;44.72;5.88;;;;;;;3.30;100.00;99832.56;5060973;28;20045;-71
2024/03/23 03:04:32;;;;;;;67.22;6.25;;;;;;;3.27;100.00;99821.44;5062376;28;20063;-73
2024/03/23 03:06:57;;;;;;;41.78;5.78;;;;;;;3.27;100.00;99821.44;5060838;28;20484;-72
2024/03/23 03:09:23;;;;;;;50.08;5.93;;;;;;;3.25;100.00;99815.50;5060707;28;20036;-73
2024/03/23 03:11:48;;;;;;;50.92;5.70;;;;;;;3.24;100.00;99816.50;5061926;28;20037;-72
2024/03/23 03:14:13;;;;;;;46.55;5.47;;;;;;;3.23;100.00;99805.03;5061169;28;20032;-71
2024/03/23 03:16:39;;;;;;;44.63;5.78;;;;;;;3.22;100.00;99813.19;5060741;28;20043;-72
2024/03/23 03:19:04;;;;;;;46.92;6.13;;;;;;;3.22;100.00;99800.72;5060326;28;20039;-72
2024/03/23 03:21:30;;;;;;;43.63;5.07;;;;;;;3.21;100.00;99796.41;5060745;28;20033;-73
2024/03/23 03:23:56;;;;;;;57.38;7.78;;;;;;;3.20;100.00;99794.75;5060229;28;20037;-72
2024/03/23 03:26:22;;;;;;;43.38;5.78;;;;;;;3.17;100.00;99800.41;5060790;28;20021;-72
2024/03/23 03:28:48;;;;;;;50.10;5.95;;;;;;;3.12;100.00;99778.88;5060440;28;20105;-72
2024/03/23 03:31:18;;;;;;;54.00;6.60;;;;;;;3.15;100.00;99783.00;5059752;28;20025;-73
2024/03/23 03:33:43;;;;;;;50.03;5.60;;;;;;;3.16;100.00;99782.00;5059320;28;20055;-73
2024/03/23 03:36:09;;;;;;;51.88;5.50;;;;;;;3.12;100.00;99778.88;5059563;28;20032;-72
2024/03/23 03:38:38;;;;;;;56.63;5.60;;;;;;;3.09;100.00;99773.91;5059234;28;20044;-72
2024/03/23 03:41:04;;;;;;;45.28;5.75;;;;;;;3.11;100.00;99771.88;5059862;28;20033;-72
2024/03/23 03:43:29;;;;;;;55.67;7.10;;;;;;;3.12;100.00;99770.06;5059003;28;20055;-73
2024/03/23 03:45:57;;;;;;;43.97;5.53;;;;;;;3.11;100.00;99763.91;5058947;28;20059;-72
2024/03/23 03:48:22;;;;;;;41.55;5.40;;;;;;;2.96;100.00;99736.44;5059092;28;20044;-72
2024/03/23 03:50:48;;;;;;;45.95;5.32;;;;;;;3.13;100.00;99767.22;5063049;28;20032;-72
2024/03/23 03:53:13;;;;;;;56.08;5.88;;;;;;;3.12;100.00;99754.13;5058818;28;20066;-73
2024/03/23 03:55:39;;;;;;;47.97;5.45;;;;;;;3.13;100.00;99761.09;5052714;28;20555;-72
2024/03/23 03:58:04;;;;;;;51.45;6.07;;;;;;;3.14;100.00;99760.06;5058457;28;20100;-72
2024/03/23 04:00:30;;;;;;;54.45;5.10;;;;;;;3.13;100.00;99743.28;5058194;28;20060;-72
2024/03/23 04:02:56;;;;;;;52.90;6.20;;;;;;;3.13;100.00;99753.94;5058091;28;20036;-72
2024/03/23 04:05:22;;;;;;;53.13;6.15;;;;;;;3.11;100.00;99750.59;5057768;28;20476;-73
2024/03/23 04:07:47;;;;;;;55.50;6.07;;;;;;;3.11;100.00;99755.94;5060676;28;20072;-73
2024/03/23 04:10:13;;;;;;;55.35;6.63;;;;;;;3.11;100.00;99755.94;5061644;28;20029;-73
2024/03/23 04:12:38;;;;;;;47.15;5.80;;;;;;;3.14;100.00;99744.94;5061202;28;20021;-72
2024/03/23 04:15:04;;;;;;;47.80;5.13;;;;;;;3.19;100.00;99749.75;5061884;28;20104;-72
2024/03/23 04:17:32;;;;;;;49.67;6.18;;;;;;;3.17;100.00;99744.59;5061971;28;20036;-72
2024/03/23 04:19:58;;;;;;;50.15;5.70;;;;;;;3.13;100.00;99735.31;5060879;28;20088;-73
2024/03/23 04:22:25;;;;;;;51.53;6.05;;;;;;;3.12;100.00;99746.16;5060827;28;20064;-72
2024/03/23 04:24:54;;;;;;;42.88;4.72;;;;;;;3.09;100.00;99741.19;5060259;28;20094;-72
2024/03/23 04:27:20;;;;;;;45.65;5.47;;;;;;;3.02;100.00;99733.91;5061131;28;20033;-72
2024/03/23 04:29:53;;;;;;;49.08;5.85;;;;;;;3.02;100.00;99733.09;5060968;28;20074;-72
2024/03/23 04:32:18;;;;;;;58.65;5.90;;;;;;;3.00;100.00;99733.25;5061239;28;20048;-72
2024/03/23 04:34:45;;;;;;;48.78;5.68;;;;;;;3.01;100.00;99731.41;5061019;28;20480;-72
2024/03/23 04:37:11;;;;;;;49.72;5.30;;;;;;;3.01;100.00;99724.28;5060637;28;20495;-73
2024/03/23 04:39:37;;;;;;;49.30;5.30;;;;;;;3.02;100.00;99714.47;5062173;28;20033;-73
2024/03/23 04:42:03;;;;;;;54.05;6.07;;;;;;;2.99;100.00;99722.81;5062710;28;20028;-73
2024/03/23 04:44:28;;;;;;;52.92;5.75;;;;;;;2.99;100.00;99733.44;5056099;28;20021;-73
2024/03/23 04:46:54;;;;;;;56.72;5.32;;;;;;;2.97;100.00;99724.81;5058146;28;20056;-73
2024/03/23 04:49:20;;;;;;;56.10;5.72;;;;;;;2.93;100.00;99727.00;5060193;28;20029;-72
2024/03/23 04:51:46;;;;;;;51.53;5.20;;;;;;;2.92;100.00;99727.19;5061137;28;20033;-73
2024/03/23 04:54:12;;;;;;;50.85;6.18;;;;;;;2.86;100.00;99719.91;5059942;28;20047;-73
2024/03/23 04:56:38;;;;;;;48.47;5.45;;;;;;;2.87;100.00;99716.25;5059075;28;20028;-73
2024/03/23 04:59:04;;;;;;;48.63;5.28;;;;;;;2.90;100.00;99721.19;5059740;28;20380;-73
2024/03/23 05:01:33;;;;;;;59.25;5.38;;;;;;;2.90;100.00;99715.88;5059205;28;20049;-73
2024/03/23 05:03:59;;;;;;;45.28;5.18;;;;;;;2.90;100.00;99711.41;5059529;28;20032;-72
2024/03/23 05:06:25;;;;;;;43.10;5.32;;;;;;;2.76;100.00;99690.91;5059136;28;20033;-72
2024/03/23 05:08:51;;;;;;;60.70;5.03;;;;;;;2.89;100.00;99706.28;5075089;28;20037;-72
2024/03/23 05:11:17;;;;;;;53.22;5.85;;;;;;;2.93;100.00;99711.03;5060360;28;20396;-71
2024/03/23 05:13:44;;;;;;;48.88;5.00;;;;;;;2.95;100.00;99705.56;5060242;28;20028;-72
2024/03/23 05:16:09;;;;;;;63.90;5.55;;;;;;;2.96;100.00;99705.38;5060126;28;20486;-72
2024/03/23 05:18:35;;;;;;;42.67;5.05;;;;;;;2.97;100.00;99709.69;5059326;28;20086;-72
2024/03/23 05:21:01;;;;;;;57.35;5.25;;;;;;;2.97;100.00;99700.88;5059798;28;20025;-72
2024/03/23 05:23:28;;;;;;;46.95;5.13;;;;;;;3.02;100.00;99696.72;5060236;28;20037;-72
2024/03/23 05:25:54;;;;;;;51.33;5.18;;;;;;;3.05;100.00;99699.00;5060338;28;20056;-72
2024/03/23 05:28:20;;;;;;;51.33;5.40;;;;;;;3.07;100.00;99690.84;5060732;28;20017;-72
2024/03/23 05:30:55;;;;;;;50.28;5.25;;;;;;;3.09;100.00;99699.47;5060775;28;20078;-72
2024/03/23 05:33:20;;;;;;;37.97;5.22;;;;;;;3.10;100.00;99689.66;5058876;28;20119;-72
2024/03/23 05:35:47;;;;;;;49.10;5.22;;;;;;;3.18;100.00;99701.06;5060453;28;20110;-73
2024/03/23 05:38:13;;;;;;;39.28;4.85;;;;;;;3.24;100.00;99699.50;5048862;28;20091;-72
2024/03/23 05:40:40;;;;;;;55.45;5.75;;;;;;;3.23;100.00;99697.88;5039213;28;20163;-72
2024/03/23 05:43:06;;;;;;;45.35;4.90;;;;;;;3.35;100.00;99703.59;5039907;28;20250;-73
2024/03/23 05:45:31;;;;;;;51.08;5.18;;;;;;;3.40;100.00;99701.22;5044026;28;20061;-72
2024/03/23 05:47:57;;;;;;;50.85;6.07;;;;;;;3.45;100.00;99698.84;5060399;28;20064;-72
2024/03/23 05:50:23;;;;;;;44.97;5.68;;;;;;;3.47;100.00;99700.31;5059303;28;20029;-72
2024/03/23 05:52:49;;;;;;;54.95;5.90;;;;;;;3.53;100.00;99699.59;5060503;28;20071;-72
2024/03/23 05:55:15;;;;;;;43.55;5.70;;;;;;;3.58;100.00;99687.59;5060225;28;20553;-72
2024/03/23 05:57:40;;;;;;;50.47;4.95;;;;;;;3.60;100.00;99686.41;5060553;28;20029;-72
2024/03/23 06:00:15;;;;;;;51.65;5.35;;;;;;;3.66;100.00;99682.19;5061624;28;20520;-72
2024/03/23 06:02:45;;;;;;;54.20;5.35;;;;;;;3.74;100.00;99685.59;5060818;28;20025;-72
2024/03/23 06:05:12;;;;;;;39.42;4.80;;;;;;;3.79;100.00;99684.22;5061464;28;20021;-72
2024/03/23 06:07:37;;;;;;;52.55;6.30;;;;;;;3.87;100.00;99679.63;5062477;28;20021;-72
2024/03/23 06:10:03;;;;;;;54.70;5.93;;;;;;;3.93;100.00;99680.72;5059157;28;20082;-72
2024/03/23 06:12:28;;;;;;;46.80;6.47;;;;;;;3.94;100.00;99671.72;5058259;28;20053;-72
2024/03/23 06:14:53;;;;;;;60.65;5.70;;;;;;;3.98;100.00;99673.84;5059942;28;20432;-72
2024/03/23 06:17:19;;;;;;;51.35;6.15;;;;;;;4.11;100.00;99675.88;5058499;28;20032;-72
2024/03/23 06:19:44;;;;;;;41.45;5.40;;;;;;;4.15;100.00;99669.16;5054584;28;20091;-72
2024/03/23 06:22:10;;;;;;;44.58;5.78;;;;;;;4.28;100.00;99678.34;5039349;28;20052;-73
2024/03/23 06:24:35;;;;;;;46.90;5.93;;;;;;;4.33;100.00;99676.75;5038687;28;20503;-72
2024/03/23 06:27:01;;;;;;;39.83;5.05;;;;;;;4.37;100.00;99678.03;5037811;28;20150;-76
2024/03/23 06:29:26;;;;;;;49.55;5.10;;;;;;;4.42;100.00;99662.31;5039669;28;20032;-76
2024/03/23 06:31:54;;;;;;;45.97;5.30;;;;;;;4.59;100.00;99675.41;5020670;28;20384;-77
2024/03/23 06:34:19;;;;;;;48.47;5.65;;;;;;;4.75;100.00;99667.19;5039857;28;20029;-75
2024/03/23 06:36:46;;;;;;;42.90;5.18;;;;;;;4.37;100.00;99597.31;5040915;28;20033;-77
2024/03/23 06:39:15;;;;;;;46.13;6.65;;;;;;;4.90;100.00;99667.97;5041691;28;20044;-78
2024/03/23 06:41:41;;;;;;;50.45;6.63;;;;;;;4.95;100.00;99662.06;5043792;28;20029;-77
2024/03/23 06:44:07;;;;;;;38.67;5.65;;;;;;;5.05;100.00;99661.72;5039461;28;20029;-76
2024/03/23 06:46:32;;;;;;;46.85;6.07;;;;;;;5.10;100.00;99667.31;5037746;28;20051;-76
2024/03/23 06:48:57;;;;;;;45.38;5.35;;;;;;;4.69;100.00;99590.66;5036211;28;20029;-77
2024/03/23 06:51:23;;;;;;;46.83;4.88;;;;;;;5.18;100.00;99662.69;5041198;28;20780;-77
2024/03/23 06:53:49;;;;;;;40.35;5.35;;;;;;;5.00;100.00;99624.16;5060762;28;20025;-79
2024/03/23 06:56:15;;;;;;;35.55;5.05;;;;;;;5.20;100.00;99654.50;5058927;28;20040;-78
2024/03/23 06:58:40;;;;;;;37.65;5.43;;;;;;;5.27;100.00;99658.03;5059507;28;20032;-76
2024/03/23 07:01:06;;;;;;;44.63;5.22;;;;;;;5.20;100.00;99630.50;5053188;28;20049;-75
2024/03/23 07:03:32;;;;;;;36.35;5.35;;;;;;;5.38;100.00;99652.16;5040070;28;20404;-78
2024/03/23 07:06:16;;;;;;;39.15;4.60;;;;;;;5.48;100.00;99651.81;5065165;28;20058;-81
2024/03/23 07:08:42;;;;;;;41.72;5.32;;;;;;;5.55;100.00;99650.03;5063324;28;20063;-79
2024/03/23 07:11:07;;;;;;;36.30;4.82;;;;;;;5.60;100.00;99654.81;5057461;28;20065;-77
2024/03/23 07:13:32;;;;;;;48.42;6.53;;;;;;;5.70;100.00;99657.94;5040518;28;20484;-77
2024/03/23 07:15:59;;;;;;;45.33;5.22;;;;;;;5.79;100.00;99656.75;5021328;28;20026;-79
2024/03/23 07:18:25;;;;;;;38.58;5.13;;;;;;;5.80;100.00;99653.06;5040787;28;20121;-78
2024/03/23 07:20:54;;;;;;;40.95;4.90;;;;;;;5.80;100.00;99647.75;5042125;28;20139;-76
2024/03/23 07:23:20;;;;;;;33.22;4.45;;;;;;;5.85;100.00;99645.28;5045034;28;20021;-78
2024/03/23 07:25:55;;;;;;;41.95;4.95;;;;;;;5.94;100.00;99642.50;5044540;28;20029;-79
2024/03/23 07:28:21;;;;;;;34.22;5.20;;;;;;;6.03;100.00;99649.34;5042501;28;20071;-77
2024/03/23 07:30:47;;;;;;;40.85;5.15;;;;;;;5.77;100.00;99592.06;5044252;28;20025;-76
2024/03/23 07:33:12;;;;;;;39.05;5.35;;;;;;;6.00;100.00;99625.69;5049498;28;20112;-80
2024/03/23 07:35:37;;;;;;;33.92;4.55;;;;;;;6.25;100.00;99639.34;5051411;28;20022;-75
2024/03/23 07:38:05;;;;;;;33.40;4.82;;;;;;;6.07;100.00;99607.84;5049054;28;20060;-77
2024/03/23 07:40:31;;;;;;;31.00;4.95;;;;;;;6.13;100.00;99607.06;5058919;28;20032;-79
2024/03/23 07:42:56;;;;;;;31.65;4.55;;;;;;;6.54;100.00;99640.88;5062246;28;20032;-77
2024/03/23 07:45:21;;;;;;;38.97;5.60;;;;;;;6.57;100.00;99616.44;5062346;28;20084;-77
2024/03/23 07:47:47;;;;;;;31.75;5.00;;;;;;;6.61;100.00;99630.22;5063251;28;20112;-77
2024/03/23 07:50:12;;;;;;;26.63;4.20;;;;;;;6.50;100.00;99629.78;5062125;28;20099;-77
2024/03/23 07:52:38;;;;;;;31.45;4.15;;;;;;;6.15;100.00;99572.94;5063573;28;20025;-77
2024/03/23 07:55:04;;;;;;;29.95;5.20;;;;;;;6.55;100.00;99618.47;5063432;28;20029;-77
2024/03/23 07:57:29;;;;;;;45.63;5.32;;;;;;;6.51;100.00;99625.25;5063057;28;20025;-76
2024/03/23 07:59:54;;;;;;;39.92;4.88;;;;;;;6.27;100.00;99589.22;5064130;28;20041;-76
2024/03/23 08:02:21;;;;;;;35.30;5.30;;;;;;;6.41;100.00;99612.28;5055147;28;20037;-77
2024/03/23 08:04:46;;;;;;;29.73;5.35;;;;;;;6.00;100.00;99549.09;5055548;28;20031;-77
2024/03/23 08:07:12;;;;;;;30.65;5.15;;;;;;;6.10;100.00;99575.41;5057951;28;20037;-77
2024/03/23 08:09:37;;;;;;;38.88;5.20;;;;;;;6.26;100.00;99583.06;5051582;28;20361;-77
2024/03/23 08:12:02;;;;;;;37.10;5.35;;;;;;;6.13;100.00;99542.16;5060284;28;20043;-76
2024/03/23 08:14:28;;;;;;;32.05;4.18;;;;;;;6.67;100.00;99595.47;5061617;28;20025;-76
2024/03/23 08:16:54;;;;;;;36.67;6.35;;;;;;;6.64;100.00;99611.09;5063219;28;20115;-77
2024/03/23 08:19:20;;;;;;;27.85;3.90;;;;;;;6.67;100.00;99616.03;5068175;28;20029;-76
2024/03/23 08:21:45;;;;;;;35.97;5.10;;;;;;;6.68;100.00;99617.69;5049352;28;20043;-77
2024/03/23 08:24:11;;;;;;;38.47;5.30;;;;;;;6.57;100.00;99584.38;5048973;28;20471;-77
2024/03/23 08:26:37;;;;;;;28.40;5.07;;;;;;;6.48;100.00;99581.03;5043359;28;20033;-77
2024/03/23 08:29:03;;;;;;;32.97;5.03;;;;;;;6.68;100.00;99618.50;5046225;28;20040;-76
2024/03/23 08:31:28;;;;;;;33.95;5.53;;;;;;;6.74;100.00;99615.03;5041044;28;20432;-77
2024/03/23 08:33:54;;;;;;;45.67;5.10;;;;;;;6.73;100.00;99591.19;5042186;28;20048;-78
2024/03/23 08:36:19;;;;;;;35.13;5.50;;;;;;;6.95;100.00;99610.50;5046395;28;20037;-77
2024/03/23 08:38:44;;;;;;;32.40;5.05;;;;;;;6.81;100.00;99574.94;5062771;28;20033;-77
2024/03/23 08:41:11;;;;;;;33.95;5.38;;;;;;;7.02;100.00;99614.03;5051664;28;20045;-77
2024/03/23 08:43:39;;;;;;;42.83;4.82;;;;;;;6.88;100.00;99617.72;5042796;28;20034;-76
2024/03/23 08:46:11;;;;;;;41.78;5.28;;;;;;;6.85;100.00;99620.78;5042391;28;20033;-76
2024/03/23 08:48:38;;;;;;;40.17;4.65;;;;;;;6.67;100.00;99584.78;5040703;28;20025;-76
2024/03/23 08:51:07;;;;;;;31.60;4.82;;;;;;;6.82;100.00;99597.94;5040518;28;20022;-76
2024/03/23 08:53:34;;;;;;;31.88;4.88;;;;;;;6.99;100.00;99620.63;5042755;28;20139;-77
2024/03/23 08:56:00;;;;;;;36.22;5.53;;;;;;;6.95;100.00;99618.53;5048096;28;20017;-77
2024/03/23 08:58:27;;;;;;;25.65;4.47;;;;;;;6.97;100.00;99622.66;5062593;28;20025;-76
2024/03/23 09:00:56;;;;;;;33.80;4.65;;;;;;;6.73;100.00;99573.28;5047291;28;20049;-76
2024/03/23 09:03:22;;;;;;;34.70;5.32;;;;;;;6.96;100.00;99617.53;5041356;28;20026;-76
2024/03/23 09:05:47;;;;;;;28.48;4.45;;;;;;;6.97;100.00;99622.66;5054785;28;20025;-77
2024/03/23 09:08:12;;;;;;;27.63;4.32;;;;;;;6.93;100.00;99620.63;5061805;28;20454;-78
2024/03/23 09:10:39;;;;;;;30.88;4.95;;;;;;;6.80;100.00;99613.41;5027851;28;20036;-77
2024/03/23 09:13:04;;;;;;;35.55;5.05;;;;;;;6.79;100.00;99612.56;5056222;28;20029;-78
2024/03/23 09:15:31;;;;;;;38.20;5.32;;;;;;;6.90;100.00;99627.19;5062710;28;20094;-76
2024/03/23 09:17:56;;;;;;;39.83;5.55;;;;;;;6.93;100.00;99623.28;5054167;28;20345;-77
2024/03/23 09:20:21;;;;;;;29.05;4.80;;;;;;;6.46;100.00;99543.03;5044019;28;20503;-78
2024/03/23 09:22:48;;;;;;;35.08;5.47;;;;;;;6.79;100.00;99593.84;5060217;28;20036;-78
2024/03/23 09:25:13;;;;;;;35.90;5.20;;;;;;;7.05;100.00;99614.44;5061902;28;20037;-77
2024/03/23 09:27:39;;;;;;;25.63;4.70;;;;;;;6.96;100.00;99599.63;5062008;28;20117;-78
2024/03/23 09:30:05;;;;;;;31.50;5.70;;;;;;;7.00;100.00;99610.75;5062065;28;20059;-77
2024/03/23 09:32:36;;;;;;;37.05;4.75;;;;;;;6.97;100.00;99617.31;5060960;28;20033;-77
2024/03/23 09:35:07;;;;;;;27.83;4.68;;;;;;;6.55;100.00;99565.84;5060402;28;20063;-77
2024/03/23 09:37:34;;;;;;;29.35;4.32;;;;;;;6.70;100.00;99589.72;5050751;28;20034;-78
2024/03/23 09:40:00;;;;;;;34.95;4.85;;;;;;;6.88;100.00;99599.00;5040321;28;20034;-78
2024/03/23 09:42:25;;;;;;;32.47;5.28;;;;;;;7.05;100.00;99616.28;5040545;28;20029;-78
2024/03/23 09:44:51;;;;;;;34.58;4.80;;;;;;;7.10;100.00;99615.69;5040342;28;20510;-75
2024/03/23 09:47:17;;;;;;;29.00;4.18;;;;;;;6.91;100.00;99596.72;5048775;28;20030;-79
2024/03/23 09:49:43;;;;;;;24.52;4.15;;;;;;;6.83;100.00;99580.91;5046278;28;20060;-78
2024/03/23 09:52:08;;;;;;;24.92;3.97;;;;;;;6.66;100.00;99542.25;5039002;28;20021;-78
2024/03/23 09:54:34;;;;;;;20.50;3.90;;;;;;;7.21;100.00;99617.72;5052722;28;20025;-76
2024/03/23 09:56:59;;;;;;;30.02;4.30;;;;;;;7.30;100.00;99611.97;5054945;28;20029;-77
2024/03/23 09:59:26;;;;;;;21.30;3.80;;;;;;;7.21;100.00;99590.97;5057697;28;20048;-78
2024/03/23 10:01:53;;;;;;;26.17;3.60;;;;;;;7.20;100.00;99570.59;5060733;28;20124;-78
2024/03/23 10:04:37;;;;;;;25.50;3.90;;;;;;;7.36;100.00;99586.25;5061249;28;20021;-78
2024/03/23 10:07:18;;;;;;;22.83;4.20;;;;;;;7.60;100.00;99602.66;5048099;28;20017;-78
2024/03/23 10:09:44;;;;;;;30.30;5.28;;;;;;;7.56;100.00;99596.91;5041767;28;20148;-78
2024/03/23 10:12:15;;;;;;;21.75;4.45;;;;;;;7.49;100.00;99591.56;5042177;28;20088;-78
2024/03/23 10:14:41;;;;;;;27.25;4.65;;;;;;;7.58;100.00;99607.41;5041157;28;20032;-77
2024/03/23 10:17:19;;;;;;;30.38;5.07;;;;;;;7.27;100.00;99563.41;5040975;28;20030;-77
2024/03/23 10:19:49;;;;;;;26.38;4.93;;;;;;;7.50;100.00;99595.06;5050789;28;20062;-78
2024/03/23 10:22:22;;;;;;;35.97;4.95;;;;;;;7.61;100.00;99599.75;5070006;28;20036;-78
2024/03/23 10:24:49;;;;;;;39.13;4.97;;;;;;;7.76;100.00;99599.53;5068940;28;20024;-78
2024/03/23 10:27:21;;;;;;;30.02;4.10;;;;;;;7.85;100.00;99587.56;5067123;28;20013;-79
2024/03/23 10:29:50;;;;;;;27.90;4.18;;;;;;;7.98;100.00;99592.06;5070297;28;20016;-78
2024/03/23 10:32:18;;;;;;;27.58;4.75;;;;;;;7.70;100.00;99552.19;5052563;28;20029;-78
2024/03/23 10:34:44;;;;;;;29.85;5.78;;;;;;;7.97;100.00;99593.06;5054912;28;20049;-79
2024/03/23 10:37:10;;;;;;;34.15;4.95;;;;;;;8.07;100.00;99592.63;5044752;28;20060;-78
2024/03/23 10:39:40;;;;;;;33.67;4.55;;;;;;;8.26;100.00;99583.69;5043582;28;20038;-79
2024/03/23 10:42:12;;;;;;;26.48;4.40;;;;;;;8.40;100.00;99579.91;5041836;28;20029;-78
2024/03/23 10:44:38;;;;;;;31.88;4.78;;;;;;;8.57;100.00;99585.59;5040961;28;20060;-79
2024/03/23 10:47:05;;;;;;;29.63;5.60;;;;;;;8.57;100.00;99582.91;5056705;28;20029;-76
2024/03/23 10:49:32;;;;;;;34.90;5.43;;;;;;;8.65;100.00;99577.31;5040699;28;20025;-79
2024/03/23 10:52:02;;;;;;;33.20;4.75;;;;;;;8.56;100.00;99575.09;5038856;28;20135;-79
2024/03/23 10:54:30;;;;;;;27.88;4.90;;;;;;;8.54;100.00;99588.69;5040723;28;20021;-79
2024/03/23 10:57:04;;;;;;;35.08;5.85;;;;;;;8.38;100.00;99582.00;5037933;28;20025;-80
2024/03/23 10:59:31;;;;;;;40.95;6.07;;;;;;;8.20;100.00;99585.34;5038323;28;20025;-78
2024/03/23 11:01:58;;;;;;;26.67;4.60;;;;;;;8.38;100.00;99587.38;5039734;28;20381;-78
2024/03/23 11:04:34;;;;;;;26.48;4.38;;;;;;;8.58;100.00;99576.53;5039512;28;20148;-78
2024/03/23 11:07:00;;;;;;;36.40;5.13;;;;;;;8.63;100.00;99570.50;5041748;28;20385;-79
2024/03/23 11:09:35;;;;;;;29.70;4.28;;;;;;;8.69;100.00;99583.88;5039122;28;20669;-78
2024/03/23 11:12:23;;;;;;;27.52;5.30;;;;;;;8.78;100.00;99571.03;5039026;28;20100;-76
2024/03/23 11:14:50;;;;;;;27.27;4.57;;;;;;;8.70;100.00;99558.69;5037521;28;20060;-77
2024/03/23 11:17:20;;;;;;;30.08;4.78;;;;;;;8.73;100.00;99562.78;5053094;28;20092;-75
2024/03/23 11:19:59;;;;;;;29.48;4.78;;;;;;;8.63;100.00;99547.19;5058180;28;20120;-76
2024/03/23 11:22:44;;;;;;;26.55;4.50;;;;;;;8.78;100.00;99564.84;5050854;28;20030;-77